createdAt,value
2022-10-26T00:01:56.543Z,14.34
2022-10-26T00:03:59.479Z,14.29
2022-10-26T00:06:07.635Z,14.29
2022-10-26T00:08:11.188Z,14.30
2022-10-26T00:10:13.992Z,14.26
2022-10-26T00:12:16.808Z,14.24
2022-10-26T00:14:19.561Z,14.16
2022-10-26T00:16:24.627Z,14.14
2022-10-26T00:18:28.952Z,14.15
2022-10-26T00:20:33.392Z,14.14
2022-10-26T00:22:36.166Z,14.13
2022-10-26T00:24:39.805Z,14.16
2022-10-26T00:26:42.601Z,14.20
2022-10-26T00:28:45.980Z,14.23
2022-10-26T00:30:48.743Z,14.22
2022-10-26T00:32:51.498Z,14.20
2022-10-26T00:34:55.610Z,14.17
2022-10-26T00:36:58.424Z,14.17
2022-10-26T00:39:01.163Z,14.21
2022-10-26T00:41:03.963Z,14.22
2022-10-26T00:43:07.577Z,14.23
2022-10-26T00:45:21.297Z,14.24
2022-10-26T00:47:29.962Z,14.23
2022-10-26T00:49:32.813Z,14.24
2022-10-26T00:51:41.502Z,14.36
2022-10-26T00:53:45.411Z,14.35
2022-10-26T00:55:52.167Z,14.31
2022-10-26T00:57:55.690Z,14.30
2022-10-26T01:00:00.664Z,14.38
2022-10-26T01:02:03.576Z,14.28
2022-10-26T01:04:06.372Z,14.27
2022-10-26T01:06:10.034Z,14.26
2022-10-26T01:08:15.199Z,14.30
2022-10-26T01:10:18.735Z,14.34
2022-10-26T01:12:21.456Z,14.30
2022-10-26T01:14:25.195Z,14.26
2022-10-26T01:16:45.591Z,14.17
2022-10-26T01:18:55.341Z,14.14
2022-10-26T01:21:30.699Z,14.17
2022-10-26T01:23:44.885Z,14.17
2022-10-26T01:26:17.502Z,14.27
2022-10-26T01:28:34.148Z,14.26
2022-10-26T01:30:41.614Z,14.24
2022-10-26T01:32:52.652Z,14.24
2022-10-26T01:35:02.858Z,14.25
2022-10-26T01:37:11.800Z,14.23
2022-10-26T01:39:19.074Z,14.27
2022-10-26T01:41:27.104Z,14.31
2022-10-26T01:43:35.049Z,14.25
2022-10-26T01:45:43.847Z,14.24
2022-10-26T01:47:49.760Z,14.11
2022-10-26T01:49:56.644Z,14.14
2022-10-26T01:51:59.412Z,14.13
2022-10-26T01:54:02.607Z,14.11
2022-10-26T01:56:06.012Z,14.14
2022-10-26T01:58:19.565Z,14.17
2022-10-26T02:00:22.538Z,14.16
2022-10-26T02:02:55.596Z,14.20
2022-10-26T02:05:16.711Z,14.16
2022-10-26T02:07:26.028Z,14.16
2022-10-26T02:09:38.923Z,14.11
2022-10-26T02:11:46.543Z,14.10
2022-10-26T02:13:55.128Z,14.10
2022-10-26T02:16:02.192Z,14.13
2022-10-26T02:18:15.426Z,14.15
2022-10-26T02:20:23.248Z,14.14
2022-10-26T02:22:30.658Z,14.14
2022-10-26T02:24:36.884Z,14.17
2022-10-26T02:26:41.954Z,14.18
2022-10-26T02:28:48.247Z,14.21
2022-10-26T02:30:54.035Z,14.21
2022-10-26T02:32:58.938Z,14.22
2022-10-26T02:35:04.703Z,14.21
2022-10-26T02:37:08.384Z,14.22
2022-10-26T02:39:14.260Z,14.22
2022-10-26T02:41:18.977Z,14.14
2022-10-26T02:43:23.205Z,14.04
2022-10-26T02:45:32.220Z,14.07
2022-10-26T02:47:35.295Z,14.10
2022-10-26T02:49:38.722Z,14.13
2022-10-26T02:53:59.441Z,13.95
2022-10-26T02:56:09.307Z,13.94
2022-10-26T02:58:17.872Z,13.92
2022-10-26T03:00:21.088Z,14.00
2022-10-26T03:02:24.121Z,14.06
2022-10-26T03:04:31.136Z,14.08
2022-10-26T03:06:33.921Z,14.08
2022-10-26T03:08:38.142Z,14.11
2022-10-26T03:10:43.352Z,14.10
2022-10-26T03:12:46.403Z,14.09
2022-10-26T03:14:49.386Z,14.09
2022-10-26T03:18:59.812Z,13.95
2022-10-26T03:21:02.623Z,14.03
2022-10-26T03:23:05.419Z,14.08
2022-10-26T03:25:10.210Z,13.96
2022-10-26T03:27:13.005Z,14.07
2022-10-26T03:29:15.855Z,14.12
2022-10-26T03:31:18.825Z,14.11
2022-10-26T03:33:25.538Z,14.13
2022-10-26T03:35:30.713Z,14.13
2022-10-26T03:37:33.547Z,14.16
2022-10-26T03:39:36.280Z,14.19
2022-10-26T03:41:40.496Z,14.24
2022-10-26T03:43:43.259Z,14.18
2022-10-26T03:45:46.140Z,14.18
2022-10-26T03:47:50.378Z,14.18
2022-10-26T03:49:53.210Z,14.19
2022-10-26T03:51:56.024Z,14.18
2022-10-26T03:53:58.792Z,14.16
2022-10-26T03:56:01.611Z,14.11
2022-10-26T03:58:06.025Z,14.08
2022-10-26T04:00:10.157Z,14.10
2022-10-26T04:02:17.519Z,14.09
2022-10-26T04:04:20.303Z,14.08
2022-10-26T04:06:23.085Z,14.09
2022-10-26T04:08:25.832Z,14.10
2022-10-26T04:10:29.266Z,14.12
2022-10-26T04:12:32.028Z,14.09
2022-10-26T04:14:36.210Z,14.09
2022-10-26T04:16:38.918Z,14.06
2022-10-26T04:18:41.727Z,14.05
2022-10-26T04:20:44.505Z,14.05
2022-10-26T04:22:47.338Z,14.07
2022-10-26T04:24:50.309Z,14.08
2022-10-26T04:26:53.044Z,14.07
2022-10-26T04:28:55.778Z,14.07
2022-10-26T04:30:59.895Z,14.10
2022-10-26T04:33:02.695Z,14.07
2022-10-26T04:35:06.162Z,14.07
2022-10-26T04:37:08.920Z,14.04
2022-10-26T04:39:11.687Z,13.99
2022-10-26T04:41:14.479Z,14.01
2022-10-26T04:43:18.133Z,13.98
2022-10-26T04:45:20.926Z,13.87
2022-10-26T04:47:24.977Z,13.90
2022-10-26T04:49:27.822Z,13.90
2022-10-26T04:51:30.558Z,14.04
2022-10-26T04:53:33.441Z,13.98
2022-10-26T04:55:37.107Z,13.95
2022-10-26T04:57:40.037Z,13.93
2022-10-26T04:59:42.799Z,13.95
2022-10-26T05:01:45.700Z,13.96
2022-10-26T05:03:51.532Z,13.99
2022-10-26T05:05:54.353Z,13.96
2022-10-26T05:07:57.432Z,13.98
2022-10-26T05:10:00.160Z,14.05
2022-10-26T05:12:02.909Z,14.05
2022-10-26T05:14:05.867Z,14.06
2022-10-26T05:16:09.015Z,14.03
2022-10-26T05:18:11.975Z,14.03
2022-10-26T05:20:16.126Z,14.03
2022-10-26T05:22:18.872Z,13.99
2022-10-26T05:24:21.738Z,14.03
2022-10-26T05:26:25.289Z,14.04
2022-10-26T05:28:28.134Z,14.06
2022-10-26T05:30:31.883Z,14.08
2022-10-26T05:32:34.621Z,14.01
2022-10-26T05:34:40.787Z,14.06
2022-10-26T05:36:45.717Z,14.08
2022-10-26T05:38:48.486Z,14.11
2022-10-26T05:40:52.751Z,14.18
2022-10-26T05:43:00.752Z,14.15
2022-10-26T05:45:03.576Z,14.25
2022-10-26T05:47:07.455Z,14.23
2022-10-26T05:49:10.213Z,14.17
2022-10-26T05:51:14.179Z,14.24
2022-10-26T05:53:18.379Z,14.22
2022-10-26T05:55:21.775Z,14.17
2022-10-26T05:57:25.065Z,14.15
2022-10-26T05:59:28.412Z,14.17
2022-10-26T06:01:41.707Z,14.21
2022-10-26T06:03:58.702Z,14.24
2022-10-26T06:06:03.974Z,14.22
2022-10-26T06:08:11.464Z,14.23
2022-10-26T06:10:16.919Z,14.18
2022-10-26T06:12:20.191Z,14.23
2022-10-26T06:14:24.843Z,14.20
2022-10-26T06:16:38.786Z,14.30
2022-10-26T06:18:53.468Z,14.28
2022-10-26T06:21:11.794Z,14.28
2022-10-26T06:23:40.912Z,14.30
2022-10-26T06:25:52.838Z,14.30
2022-10-26T06:28:05.427Z,14.26
2022-10-26T06:30:11.714Z,14.20
2022-10-26T06:32:14.828Z,14.22
2022-10-26T06:34:26.102Z,14.29
2022-10-26T06:36:30.115Z,14.21
2022-10-26T06:38:35.567Z,14.32
2022-10-26T06:40:40.853Z,14.35
2022-10-26T06:42:45.799Z,14.38
2022-10-26T06:44:49.428Z,14.32
2022-10-26T06:47:00.537Z,14.35
2022-10-26T06:49:11.000Z,14.44
2022-10-26T06:51:17.247Z,14.41
2022-10-26T06:53:25.360Z,14.38
2022-10-26T06:55:35.932Z,14.39
2022-10-26T06:57:40.276Z,14.34
2022-10-26T06:59:49.228Z,14.31
2022-10-26T07:01:52.173Z,14.35
2022-10-26T07:03:55.080Z,14.42
2022-10-26T07:05:57.937Z,14.39
2022-10-26T07:08:00.842Z,14.44
2022-10-26T07:10:03.679Z,14.45
2022-10-26T07:12:07.782Z,14.49
2022-10-26T07:14:10.713Z,14.42
2022-10-26T07:16:15.271Z,14.58
2022-10-26T07:18:18.111Z,14.28
2022-10-26T07:20:22.334Z,14.29
2022-10-26T07:22:25.866Z,14.36
2022-10-26T07:24:28.852Z,14.42
2022-10-26T07:26:31.624Z,14.40
2022-10-26T07:28:36.408Z,14.49
2022-10-26T07:30:40.536Z,14.47
2022-10-26T07:32:44.696Z,14.49
2022-10-26T07:34:50.267Z,14.54
2022-10-26T07:36:53.217Z,14.55
2022-10-26T07:38:55.977Z,14.56
2022-10-26T07:40:58.711Z,14.59
2022-10-26T07:43:02.050Z,14.64
2022-10-26T07:45:06.129Z,14.62
2022-10-26T07:47:08.922Z,14.62
2022-10-26T07:49:15.221Z,14.63
2022-10-26T07:51:20.597Z,14.56
2022-10-26T07:53:27.653Z,14.59
2022-10-26T07:55:30.790Z,14.60
2022-10-26T07:57:34.998Z,14.70
2022-10-26T07:59:37.896Z,14.67
2022-10-26T08:01:40.733Z,14.66
2022-10-26T08:03:43.714Z,14.64
2022-10-26T08:05:51.053Z,14.64
2022-10-26T08:07:53.840Z,14.73
2022-10-26T08:09:56.640Z,14.73
2022-10-26T08:11:59.434Z,14.74
2022-10-26T08:14:02.260Z,14.73
2022-10-26T08:16:06.894Z,14.79
2022-10-26T08:18:09.526Z,14.73
2022-10-26T08:20:12.944Z,14.62
2022-10-26T08:22:17.150Z,14.73
2022-10-26T08:24:19.914Z,14.87
2022-10-26T08:26:22.663Z,14.76
2022-10-26T08:28:25.523Z,14.78
2022-10-26T08:30:28.307Z,14.80
2022-10-26T08:32:31.094Z,14.82
2022-10-26T08:34:33.821Z,14.87
2022-10-26T08:36:36.833Z,14.87
2022-10-26T08:38:41.031Z,15.15
2022-10-26T08:40:44.724Z,15.13
2022-10-26T08:42:51.797Z,15.05
2022-10-26T08:45:00.541Z,15.11
2022-10-26T08:47:08.974Z,15.13
2022-10-26T08:49:20.194Z,15.21
2022-10-26T08:51:26.539Z,15.46
2022-10-26T08:53:34.965Z,15.40
2022-10-26T08:55:45.558Z,15.39
2022-10-26T08:57:49.856Z,15.41
2022-10-26T08:59:58.587Z,15.51
2022-10-26T09:02:02.708Z,15.57
2022-10-26T09:04:12.399Z,15.67
2022-10-26T09:06:25.058Z,15.70
2022-10-26T09:08:37.325Z,15.82
2022-10-26T09:10:54.391Z,15.88
2022-10-26T09:13:04.137Z,15.99
2022-10-26T09:15:15.998Z,16.06
2022-10-26T09:17:28.436Z,15.98
2022-10-26T09:19:59.787Z,16.05
2022-10-26T09:22:08.417Z,16.07
2022-10-26T09:24:15.880Z,15.99
2022-10-26T09:26:30.147Z,16.16
2022-10-26T09:28:37.257Z,16.09
2022-10-26T09:30:40.318Z,16.12
2022-10-26T09:32:47.967Z,16.25
2022-10-26T09:34:53.826Z,16.35
2022-10-26T09:36:57.382Z,16.49
2022-10-26T09:39:11.502Z,16.63
2022-10-26T09:41:25.150Z,16.58
2022-10-26T09:43:34.083Z,16.66
2022-10-26T09:45:39.924Z,16.85
2022-10-26T09:47:49.209Z,16.84
2022-10-26T09:49:56.256Z,16.74
2022-10-26T09:51:59.046Z,16.67
2022-10-26T09:54:03.106Z,16.66
2022-10-26T09:56:08.597Z,16.70
2022-10-26T09:58:17.691Z,16.73
2022-10-26T10:00:23.353Z,16.81
2022-10-26T10:02:43.788Z,16.77
2022-10-26T10:04:48.686Z,16.72
2022-10-26T10:06:54.347Z,16.83
2022-10-26T10:09:10.337Z,16.90
2022-10-26T10:11:14.993Z,16.98
2022-10-26T10:13:22.010Z,16.98
2022-10-26T10:15:26.754Z,17.13
2022-10-26T10:17:29.624Z,17.21
2022-10-26T10:19:34.271Z,17.36
2022-10-26T10:21:39.565Z,17.57
2022-10-26T10:23:51.932Z,17.60
2022-10-26T10:26:01.040Z,17.70
2022-10-26T10:28:18.295Z,17.82
2022-10-26T10:30:24.728Z,17.71
2022-10-26T10:32:34.064Z,17.80
2022-10-26T10:34:39.850Z,17.79
2022-10-26T10:36:42.735Z,17.78
2022-10-26T10:38:48.035Z,17.87
2022-10-26T10:40:52.460Z,17.93
2022-10-26T10:43:03.975Z,17.90
2022-10-26T10:45:08.836Z,17.92
2022-10-26T10:47:22.398Z,18.04
2022-10-26T10:49:28.682Z,18.17
2022-10-26T10:51:39.355Z,18.24
2022-10-26T10:53:49.175Z,18.36
2022-10-26T10:56:13.261Z,18.25
2022-10-26T10:58:22.419Z,18.31
2022-10-26T11:00:26.497Z,18.33
2022-10-26T11:02:58.543Z,18.41
2022-10-26T11:05:20.858Z,18.35
2022-10-26T11:07:27.914Z,18.34
2022-10-26T11:09:35.118Z,18.37
2022-10-26T11:11:44.800Z,18.43
2022-10-26T11:13:53.759Z,18.51
2022-10-26T11:16:02.711Z,18.57
2022-10-26T11:18:13.463Z,18.52
2022-10-26T11:20:20.282Z,18.53
2022-10-26T11:22:27.333Z,18.56
2022-10-26T11:24:35.913Z,18.54
2022-10-26T11:26:46.397Z,18.54
2022-10-26T11:28:54.556Z,18.45
2022-10-26T11:31:02.595Z,18.48
2022-10-26T11:33:16.205Z,18.58
2022-10-26T11:35:24.514Z,18.65
2022-10-26T11:37:33.693Z,18.65
2022-10-26T11:39:43.848Z,18.61
2022-10-26T11:41:50.855Z,18.62
2022-10-26T11:44:02.527Z,18.67
2022-10-26T11:46:12.783Z,18.72
2022-10-26T11:48:24.178Z,18.77
2022-10-26T11:50:30.582Z,18.81
2022-10-26T11:52:40.423Z,18.82
2022-10-26T11:54:47.733Z,18.76
2022-10-26T11:56:54.791Z,18.74
2022-10-26T11:58:59.304Z,18.80
2022-10-26T12:01:05.612Z,18.89
2022-10-26T12:03:14.361Z,18.85
2022-10-26T12:05:36.982Z,18.86
2022-10-26T12:07:42.947Z,18.97
2022-10-26T12:09:46.050Z,18.91
2022-10-26T12:11:54.353Z,18.92
2022-10-26T12:14:03.856Z,18.92
2022-10-26T12:16:14.791Z,18.95
2022-10-26T12:18:50.199Z,18.93
2022-10-26T12:20:56.283Z,18.94
2022-10-26T12:22:59.236Z,18.99
2022-10-26T12:25:20.271Z,18.99
2022-10-26T12:27:33.572Z,19.04
2022-10-26T12:30:13.872Z,19.25
2022-10-26T12:32:52.678Z,19.49
2022-10-26T12:35:02.072Z,19.50
2022-10-26T12:37:29.718Z,19.45
2022-10-26T12:39:38.165Z,19.37
2022-10-26T12:41:40.870Z,19.39
2022-10-26T12:46:08.099Z,19.48
2022-10-26T12:48:38.840Z,19.41
2022-10-26T12:50:42.430Z,19.36
2022-10-26T12:52:50.913Z,19.44
2022-10-26T12:55:23.744Z,19.62
2022-10-26T12:57:35.465Z,19.66
2022-10-26T12:59:45.573Z,19.84
2022-10-26T13:02:24.928Z,19.99
2022-10-26T13:05:07.913Z,20.11
2022-10-26T13:07:19.456Z,20.19
2022-10-26T13:09:26.086Z,20.24
2022-10-26T13:11:31.407Z,20.44
2022-10-26T13:13:36.336Z,20.43
2022-10-26T13:15:41.276Z,20.32
2022-10-26T13:17:53.718Z,20.28
2022-10-26T13:19:58.510Z,20.25
2022-10-26T13:22:01.727Z,20.36
2022-10-26T13:24:07.808Z,20.19
2022-10-26T13:26:13.628Z,20.12
2022-10-26T13:28:43.100Z,20.14
2022-10-26T13:30:48.721Z,20.15
2022-10-26T13:32:54.400Z,20.19
2022-10-26T13:35:02.284Z,20.17
2022-10-26T13:37:13.972Z,20.10
2022-10-26T13:39:22.247Z,20.00
2022-10-26T13:41:32.099Z,19.98
2022-10-26T13:43:37.460Z,20.00
2022-10-26T13:45:48.092Z,20.07
2022-10-26T13:47:56.377Z,20.05
2022-10-26T13:50:05.283Z,20.07
2022-10-26T13:52:16.209Z,20.10
2022-10-26T13:54:29.064Z,20.10
2022-10-26T13:56:36.684Z,20.02
2022-10-26T13:58:45.426Z,20.07
2022-10-26T14:01:12.492Z,20.04
2022-10-26T14:03:15.805Z,20.11
2022-10-26T14:05:19.954Z,20.16
2022-10-26T14:07:26.415Z,20.17
2022-10-26T14:09:30.645Z,20.22
2022-10-26T14:11:38.771Z,20.17
2022-10-26T14:13:42.962Z,20.14
2022-10-26T14:15:47.306Z,20.10
2022-10-26T14:17:51.970Z,20.08
2022-10-26T14:19:55.592Z,20.09
2022-10-26T14:21:59.052Z,20.09
2022-10-26T14:24:07.431Z,20.10
2022-10-26T14:26:23.998Z,20.14
2022-10-26T14:28:29.750Z,20.12
2022-10-26T14:30:34.167Z,20.15
2022-10-26T14:32:37.650Z,20.05
2022-10-26T14:34:40.398Z,19.99
2022-10-26T14:36:47.829Z,20.18
2022-10-26T14:38:59.512Z,20.08
2022-10-26T14:41:02.704Z,20.09
2022-10-26T14:43:06.895Z,20.13
2022-10-26T14:45:29.792Z,20.07
2022-10-26T14:47:50.733Z,20.09
2022-10-26T14:49:54.098Z,20.05
2022-10-26T14:51:58.915Z,20.04
2022-10-26T14:54:03.435Z,20.07
2022-10-26T14:56:07.027Z,19.99
2022-10-26T14:58:19.088Z,20.06
2022-10-26T15:00:25.225Z,19.99
2022-10-26T15:02:30.826Z,19.93
2022-10-26T15:04:36.909Z,19.94
2022-10-26T15:06:42.989Z,19.90
2022-10-26T15:08:56.478Z,19.89
2022-10-26T15:11:08.215Z,19.73
2022-10-26T15:13:12.058Z,19.78
2022-10-26T15:17:38.514Z,19.77
2022-10-26T15:19:41.425Z,19.71
2022-10-26T15:21:48.809Z,19.68
2022-10-26T15:23:52.292Z,19.60
2022-10-26T15:25:57.257Z,19.61
2022-10-26T15:28:10.827Z,19.69
2022-10-26T15:30:21.326Z,19.70
2022-10-26T15:32:30.351Z,19.67
2022-10-26T15:34:34.440Z,19.63
2022-10-26T15:36:37.477Z,19.60
2022-10-26T15:38:40.325Z,19.59
2022-10-26T15:40:44.550Z,19.60
2022-10-26T15:42:50.912Z,19.60
2022-10-26T15:44:54.143Z,19.59
2022-10-26T15:47:06.420Z,19.54
2022-10-26T15:49:17.141Z,19.35
2022-10-26T15:51:21.556Z,19.27
2022-10-26T15:53:27.440Z,19.24
2022-10-26T15:55:31.567Z,19.22
2022-10-26T15:57:34.556Z,19.23
2022-10-26T15:59:38.302Z,19.24
2022-10-26T16:01:41.176Z,19.22
2022-10-26T16:03:44.151Z,19.21
2022-10-26T16:05:47.134Z,19.18
2022-10-26T16:07:51.596Z,19.13
2022-10-26T16:09:55.253Z,19.08
2022-10-26T16:11:57.977Z,19.05
2022-10-26T16:14:03.597Z,19.00
2022-10-26T16:16:13.513Z,18.98
2022-10-26T16:18:16.403Z,18.91
2022-10-26T16:20:23.686Z,18.81
2022-10-26T16:22:26.494Z,18.76
2022-10-26T16:24:31.819Z,18.73
2022-10-26T16:26:34.630Z,18.68
2022-10-26T16:28:38.042Z,18.66
2022-10-26T16:32:48.943Z,18.56
2022-10-26T16:34:52.079Z,18.51
2022-10-26T16:36:54.877Z,18.46
2022-10-26T16:38:57.657Z,18.43
2022-10-26T16:41:06.288Z,18.39
2022-10-26T16:43:09.052Z,18.29
2022-10-26T16:45:12.499Z,18.28
2022-10-26T16:47:15.367Z,18.29
2022-10-26T16:49:18.098Z,18.29
2022-10-26T16:51:22.796Z,18.28
2022-10-26T16:53:25.567Z,18.23
2022-10-26T16:55:28.307Z,18.19
2022-10-26T16:57:32.587Z,18.16
2022-10-26T16:59:35.622Z,18.12
2022-10-26T17:01:38.389Z,18.09
2022-10-26T17:03:41.476Z,18.07
2022-10-26T17:05:44.216Z,18.05
2022-10-26T17:07:48.236Z,18.06
2022-10-26T17:09:51.309Z,18.03
2022-10-26T17:11:58.308Z,18.04
2022-10-26T17:14:05.773Z,18.00
2022-10-26T17:16:11.295Z,17.99
2022-10-26T17:18:14.603Z,18.04
2022-10-26T17:20:18.004Z,18.04
2022-10-26T17:22:20.807Z,18.05
2022-10-26T17:24:23.711Z,18.03
2022-10-26T17:26:26.774Z,17.97
2022-10-26T17:28:29.506Z,17.94
2022-10-26T17:30:34.979Z,17.92
2022-10-26T17:32:37.815Z,17.87
2022-10-26T17:34:40.592Z,17.83
2022-10-26T17:36:43.349Z,17.77
2022-10-26T17:38:46.458Z,17.73
2022-10-26T17:40:49.228Z,17.70
2022-10-26T17:42:52.330Z,17.67
2022-10-26T17:44:55.090Z,17.65
2022-10-26T17:46:59.188Z,17.64
2022-10-26T17:49:02.498Z,17.59
2022-10-26T17:51:08.409Z,17.58
2022-10-26T17:53:11.286Z,17.53
2022-10-26T17:55:14.045Z,17.49
2022-10-26T17:57:16.759Z,17.45
2022-10-26T17:59:19.990Z,17.48
2022-10-26T18:01:23.345Z,17.43
2022-10-26T18:03:27.555Z,17.43
2022-10-26T18:05:31.469Z,17.40
2022-10-26T18:07:34.338Z,17.36
2022-10-26T18:09:37.084Z,17.38
2022-10-26T18:11:42.919Z,17.39
2022-10-26T18:13:46.305Z,17.39
2022-10-26T18:15:49.084Z,17.44
2022-10-26T18:17:56.729Z,17.45
2022-10-26T18:20:04.328Z,17.47
2022-10-26T18:22:06.947Z,17.37
2022-10-26T18:24:10.621Z,17.40
2022-10-26T18:26:16.805Z,17.40
2022-10-26T18:28:19.681Z,17.41
2022-10-26T18:30:22.495Z,17.44
2022-10-26T18:32:25.213Z,17.45
2022-10-26T18:34:28.421Z,17.45
2022-10-26T18:36:32.819Z,17.41
2022-10-26T18:38:36.406Z,17.38
2022-10-26T18:40:39.157Z,17.40
2022-10-26T18:42:41.902Z,17.38
2022-10-26T18:44:44.867Z,17.38
2022-10-26T18:46:51.829Z,17.36
2022-10-26T18:48:55.516Z,17.33
2022-10-26T18:51:02.387Z,17.32
2022-10-26T18:53:12.406Z,17.27
2022-10-26T18:55:15.301Z,17.22
2022-10-26T18:57:18.768Z,17.16
2022-10-26T18:59:21.545Z,17.12
2022-10-26T19:01:26.653Z,17.09
2022-10-26T19:03:29.578Z,17.05
2022-10-26T19:05:32.294Z,17.07
2022-10-26T19:07:37.720Z,16.98
2022-10-26T19:09:41.817Z,16.92
2022-10-26T19:11:45.685Z,16.85
2022-10-26T19:13:50.124Z,16.82
2022-10-26T19:16:00.644Z,16.84
2022-10-26T19:18:03.398Z,16.77
2022-10-26T19:20:07.285Z,16.76
2022-10-26T19:22:10.979Z,16.73
2022-10-26T19:24:15.776Z,16.72
2022-10-26T19:26:20.802Z,16.56
2022-10-26T19:28:23.669Z,16.58
2022-10-26T19:30:26.460Z,16.62
2022-10-26T19:32:29.438Z,16.57
2022-10-26T19:34:32.254Z,16.51
2022-10-26T19:36:35.460Z,16.49
2022-10-26T19:38:38.258Z,16.47
2022-10-26T19:40:41.058Z,16.48
2022-10-26T19:42:45.155Z,16.48
2022-10-26T19:44:47.914Z,16.43
2022-10-26T19:46:50.661Z,16.42
2022-10-26T19:48:55.033Z,16.40
2022-10-26T19:50:58.385Z,16.34
2022-10-26T19:53:02.019Z,16.29
2022-10-26T19:55:05.264Z,16.26
2022-10-26T19:57:08.517Z,16.27
2022-10-26T19:59:13.288Z,16.26
2022-10-26T20:01:16.304Z,16.19
2022-10-26T20:03:19.100Z,16.15
2022-10-26T20:05:21.872Z,16.10
2022-10-26T20:07:24.757Z,16.05
2022-10-26T20:09:27.682Z,15.99
2022-10-26T20:11:31.989Z,15.96
2022-10-26T20:13:37.303Z,15.95
2022-10-26T20:15:42.561Z,15.93
2022-10-26T20:17:45.334Z,15.95
2022-10-26T20:19:48.050Z,15.93
2022-10-26T20:21:50.824Z,15.91
2022-10-26T20:23:53.576Z,15.91
2022-10-26T20:26:00.225Z,15.91
2022-10-26T20:28:03.498Z,15.90
2022-10-26T20:30:07.068Z,15.89
2022-10-26T20:32:15.139Z,15.88
2022-10-26T20:34:17.865Z,15.84
2022-10-26T20:36:21.327Z,15.83
2022-10-26T20:38:24.596Z,15.81
2022-10-26T20:40:28.342Z,15.78
2022-10-26T20:42:31.575Z,15.76
2022-10-26T20:44:40.830Z,15.75
2022-10-26T20:46:44.215Z,15.72
2022-10-26T20:48:49.193Z,15.71
2022-10-26T20:50:56.828Z,15.68
2022-10-26T20:53:04.045Z,15.67
2022-10-26T20:55:14.752Z,15.63
2022-10-26T20:57:21.709Z,15.63
2022-10-26T20:59:31.854Z,15.60
2022-10-26T21:01:38.093Z,15.54
2022-10-26T21:03:40.948Z,15.52
2022-10-26T21:05:47.711Z,15.51
2022-10-26T21:07:51.213Z,15.53
2022-10-26T21:09:54.161Z,15.54
2022-10-26T21:11:58.302Z,15.54
2022-10-26T21:14:03.198Z,15.54
2022-10-26T21:16:06.940Z,15.52
2022-10-26T21:18:09.792Z,15.48
2022-10-26T21:20:13.698Z,15.47
2022-10-26T21:22:17.838Z,15.44
2022-10-26T21:24:20.593Z,15.43
2022-10-26T21:26:23.371Z,15.42
2022-10-26T21:28:26.171Z,15.40
2022-10-26T21:30:28.962Z,15.36
2022-10-26T21:32:31.699Z,15.34
2022-10-26T21:34:34.484Z,15.31
2022-10-26T21:36:37.269Z,15.23
2022-10-26T21:38:42.355Z,15.16
2022-10-26T21:40:45.146Z,15.11
2022-10-26T21:42:50.664Z,15.13
2022-10-26T21:44:53.583Z,15.15
2022-10-26T21:46:56.313Z,15.22
2022-10-26T21:48:59.044Z,15.23
2022-10-26T21:51:03.060Z,15.20
2022-10-26T21:53:05.829Z,15.18
2022-10-26T21:55:12.363Z,15.19
2022-10-26T21:57:16.614Z,15.21
2022-10-26T21:59:19.415Z,15.20
2022-10-26T22:01:23.986Z,15.22
2022-10-26T22:03:26.665Z,15.03
2022-10-26T22:05:29.924Z,15.06
2022-10-26T22:07:32.707Z,15.10
2022-10-26T22:09:44.736Z,15.11
2022-10-26T22:11:59.550Z,15.06
2022-10-26T22:14:02.618Z,15.05
2022-10-26T22:16:07.710Z,15.06
2022-10-26T22:18:10.466Z,15.04
2022-10-26T22:20:13.290Z,15.04
2022-10-26T22:22:16.081Z,15.10
2022-10-26T22:24:18.859Z,15.08
2022-10-26T22:26:23.387Z,15.02
2022-10-26T22:28:27.430Z,14.93
2022-10-26T22:30:32.652Z,14.88
2022-10-26T22:32:35.378Z,14.87
2022-10-26T22:34:38.099Z,14.86
2022-10-26T22:36:40.882Z,14.82
2022-10-26T22:38:43.885Z,14.80
2022-10-26T22:40:54.778Z,14.78
2022-10-26T22:42:57.586Z,14.72
2022-10-26T22:45:01.675Z,14.75
2022-10-26T22:47:04.462Z,14.75
2022-10-26T22:49:07.218Z,14.75
2022-10-26T22:51:12.213Z,14.73
2022-10-26T22:53:15.048Z,14.70
2022-10-26T22:55:17.787Z,14.69
2022-10-26T22:57:20.458Z,14.67
2022-10-26T22:59:23.381Z,14.64
2022-10-26T23:01:30.932Z,14.63
2022-10-26T23:03:34.104Z,14.65
2022-10-26T23:05:36.912Z,14.65
2022-10-26T23:07:39.689Z,14.66
2022-10-26T23:09:42.435Z,14.64
2022-10-26T23:11:45.159Z,14.63
2022-10-26T23:13:48.008Z,14.61
2022-10-26T23:15:50.752Z,14.59
2022-10-26T23:17:55.334Z,14.59
2022-10-26T23:19:57.912Z,14.41
2022-10-26T23:22:00.687Z,14.47
2022-10-26T23:24:03.453Z,14.49
2022-10-26T23:26:08.361Z,14.48
2022-10-26T23:28:11.450Z,14.48
2022-10-26T23:30:14.455Z,14.48
2022-10-26T23:32:17.230Z,14.47
2022-10-26T23:34:21.346Z,14.45
2022-10-26T23:36:25.091Z,14.42
2022-10-26T23:38:28.068Z,14.37
2022-10-26T23:40:30.821Z,14.34
2022-10-26T23:42:33.549Z,14.35
2022-10-26T23:44:36.301Z,14.33
2022-10-26T23:46:39.124Z,14.33
2022-10-26T23:48:41.856Z,14.30
2022-10-26T23:50:47.805Z,14.28
2022-10-26T23:52:50.670Z,14.24
2022-10-26T23:54:53.422Z,14.27
2022-10-26T23:56:56.129Z,14.29
2022-10-26T23:59:00.939Z,14.26
